Time;durP1;ratioP1;P1;durP2;ratioP2;P2;SDS_P1;SDS_P2;PMS_P1;PMS_P2;Temp;Humidity;BMP_temperature;BMP_pressure;BME280_temperature;BME280_humidity;BME280_pressure;Samples;Min_cycle;Max_cycle;Signal;HPM_P1;HPM_P2
2023/06/23 00:01:58;;;;;;;;;;;;;;;26.62;45.29;100990.27;102968;1295;61385;-82
2023/06/23 00:04:24;;;;;;;;;;;;;;;26.62;45.61;100987.21;102968;1296;62605;-82
2023/06/23 00:06:49;;;;;;;;;;;;;;;26.61;45.53;100996.82;102903;1295;62199;-82
2023/06/23 00:09:14;;;;;;;;;;;;;;;26.62;45.44;100997.67;102993;1295;61329;-82
2023/06/23 00:11:41;;;;;;;;;;;;;;;26.62;45.52;101000.38;102908;1290;62176;-82
2023/06/23 00:14:07;;;;;;;;;;;;;;;26.61;45.36;101003.66;103009;1293;61826;-82
2023/06/23 00:16:33;;;;;;;;;;;;;;;26.61;45.33;101005.48;103011;1293;61336;-82
2023/06/23 00:18:58;;;;;;;;;;;;;;;26.61;45.27;101009.10;102968;1294;62622;-82
2023/06/23 00:21:24;;;;;;;;;;;;;;;26.61;45.28;101006.56;102980;1295;61400;-82
2023/06/23 00:23:54;;;;;;;;;;;;;;;26.61;45.41;101004.77;103017;1293;61965;-82
2023/06/23 00:26:20;;;;;;;;;;;;;;;26.61;45.45;101004.40;103000;1296;62455;-82
2023/06/23 00:28:45;;;;;;;;;;;;;;;26.61;45.56;101000.41;103027;1294;61380;-82
2023/06/23 00:31:11;;;;;;;;;;;;;;;26.61;45.51;100995.36;102975;1301;61424;-81
2023/06/23 00:33:37;;;;;;;;;;;;;;;26.61;45.37;101001.15;102980;1296;61473;-81
2023/06/23 00:36:04;;;;;;;;;;;;;;;26.61;45.35;101002.98;102987;1293;61273;-81
2023/06/23 00:38:29;;;;;;;;;;;;;;;26.61;45.54;100997.73;102969;1295;61327;-81
2023/06/23 00:40:54;;;;;;;;;;;;;;;26.61;45.50;100998.06;102956;1298;61408;-81
2023/06/23 00:43:21;;;;;;;;;;;;;;;26.61;45.47;100998.65;103093;1298;61402;-82
2023/06/23 00:45:46;;;;;;;;;;;;;;;26.61;45.50;100998.30;102985;1297;62152;-81
2023/06/23 00:48:14;;;;;;;;;;;;;;;26.61;45.55;100999.20;103012;1295;61536;-81
2023/06/23 00:50:40;;;;;;;;;;;;;;;26.61;45.59;100999.73;102981;1290;61487;-81
2023/06/23 00:53:05;;;;;;;;;;;;;;;26.61;45.55;101002.27;102941;1295;61772;-82
2023/06/23 00:55:30;;;;;;;;;;;;;;;26.60;45.66;100999.24;102957;1304;61454;-82
2023/06/23 00:57:56;;;;;;;;;;;;;;;26.61;45.49;100997.05;103036;1293;61383;-82
2023/06/23 01:00:23;;;;;;;;;;;;;;;26.60;45.78;100997.05;102994;1296;61285;-82
2023/06/23 01:02:49;;;;;;;;;;;;;;;26.60;45.70;100993.30;103033;1295;61357;-82
2023/06/23 01:05:18;;;;;;;;;;;;;;;26.60;45.64;100995.48;103031;1293;61281;-81
2023/06/23 01:07:49;;;;;;;;;;;;;;;26.60;45.60;100998.73;103050;1290;66662;-81
2023/06/23 01:10:16;;;;;;;;;;;;;;;26.59;45.60;100999.30;103057;1295;61435;-81
2023/06/23 01:12:48;;;;;;;;;;;;;;;26.59;45.68;100993.18;103032;1297;61765;-82
2023/06/23 01:15:16;;;;;;;;;;;;;;;26.60;45.75;100992.95;103010;1298;64875;-81
2023/06/23 01:17:48;;;;;;;;;;;;;;;26.59;45.86;100991.35;102990;1296;65925;-81
2023/06/23 01:20:21;;;;;;;;;;;;;;;26.59;45.66;100992.84;103010;1294;61409;-81
2023/06/23 01:22:56;;;;;;;;;;;;;;;26.60;45.91;100992.23;102880;1292;61442;-82
2023/06/23 01:25:22;;;;;;;;;;;;;;;26.59;45.81;100991.89;102949;1290;63926;-82
2023/06/23 01:28:03;;;;;;;;;;;;;;;26.59;46.00;100988.30;102933;1292;61415;-82
2023/06/23 01:30:29;;;;;;;;;;;;;;;26.60;45.88;100987.77;103013;1297;61394;-82
2023/06/23 01:32:56;;;;;;;;;;;;;;;26.59;45.81;100986.34;102958;1295;61244;-82
2023/06/23 01:35:26;;;;;;;;;;;;;;;26.59;45.86;100987.63;103032;1290;64828;-82
2023/06/23 01:37:53;;;;;;;;;;;;;;;26.59;45.94;100991.92;103019;1296;65899;-82
2023/06/23 01:40:19;;;;;;;;;;;;;;;26.59;45.87;100990.50;102980;1296;61341;-82
2023/06/23 01:42:47;;;;;;;;;;;;;;;26.59;45.73;100992.83;102974;1296;61849;-81
2023/06/23 01:45:12;;;;;;;;;;;;;;;26.59;45.83;100994.27;102950;1290;63902;-82
2023/06/23 01:47:38;;;;;;;;;;;;;;;26.59;45.90;100994.83;102992;1293;62557;-82
2023/06/23 01:50:07;;;;;;;;;;;;;;;26.59;45.78;100998.09;102958;1294;62480;-82
2023/06/23 01:52:36;;;;;;;;;;;;;;;26.59;46.02;100997.74;103050;1296;61407;-82
2023/06/23 01:55:02;;;;;;;;;;;;;;;26.59;45.89;100994.52;102967;1294;65008;-81
2023/06/23 01:57:27;;;;;;;;;;;;;;;26.59;45.88;100995.77;102956;1293;61343;-81
2023/06/23 01:59:53;;;;;;;;;;;;;;;26.59;45.78;100995.60;102993;1294;61472;-81
2023/06/23 02:02:19;;;;;;;;;;;;;;;26.58;45.90;100994.89;102990;1290;61534;-81
2023/06/23 02:04:46;;;;;;;;;;;;;;;26.58;46.01;100995.11;102875;1295;61493;-81
2023/06/23 02:07:11;;;;;;;;;;;;;;;26.58;46.02;100995.99;102909;1294;61339;-81
2023/06/23 02:09:37;;;;;;;;;;;;;;;26.58;46.20;100999.58;103065;1295;61423;-81
2023/06/23 02:12:03;;;;;;;;;;;;;;;26.58;45.97;101001.98;103006;1291;61376;-81
2023/06/23 02:14:29;;;;;;;;;;;;;;;26.58;46.17;101005.40;103031;1295;61316;-81
2023/06/23 02:16:54;;;;;;;;;;;;;;;26.58;46.05;101009.90;102978;1293;61450;-82
2023/06/23 02:19:20;;;;;;;;;;;;;;;26.57;46.01;101009.75;103010;1303;61379;-81
2023/06/23 02:21:45;;;;;;;;;;;;;;;26.58;46.25;101006.34;102957;1291;61397;-81
2023/06/23 02:24:11;;;;;;;;;;;;;;;26.58;46.09;101009.56;102996;1296;62294;-81
2023/06/23 02:26:37;;;;;;;;;;;;;;;26.57;46.02;101008.88;103059;1294;61267;-82
2023/06/23 02:29:03;;;;;;;;;;;;;;;26.58;46.06;101007.23;103038;1295;62587;-81
2023/06/23 02:31:28;;;;;;;;;;;;;;;26.58;46.06;101006.89;103021;1295;61353;-81
2023/06/23 02:33:54;;;;;;;;;;;;;;;26.57;46.17;101004.20;102956;1289;62621;-81
2023/06/23 02:36:23;;;;;;;;;;;;;;;26.57;46.01;101005.28;102966;1295;61815;-81
2023/06/23 02:38:48;;;;;;;;;;;;;;;26.57;46.18;101008.77;103040;1289;61811;-81
2023/06/23 02:41:14;;;;;;;;;;;;;;;26.57;46.35;101012.69;102968;1289;61423;-82
2023/06/23 02:43:47;;;;;;;;;;;;;;;26.57;46.18;101010.35;103026;1295;61403;-82
2023/06/23 02:46:13;;;;;;;;;;;;;;;26.57;46.10;101005.11;102937;1290;62589;-82
2023/06/23 02:48:39;;;;;;;;;;;;;;;26.57;46.38;101002.20;103076;1290;61326;-82
2023/06/23 02:51:09;;;;;;;;;;;;;;;26.57;46.24;101001.83;103004;1296;61427;-82
2023/06/23 02:53:38;;;;;;;;;;;;;;;26.57;46.27;101001.35;102987;1289;61491;-82
2023/06/23 02:56:05;;;;;;;;;;;;;;;26.57;46.27;100998.96;103010;1290;61378;-82
2023/06/23 02:58:30;;;;;;;;;;;;;;;26.57;46.34;100993.77;102960;1292;63907;-82
2023/06/23 03:01:01;;;;;;;;;;;;;;;26.57;46.34;101000.95;102980;1296;61470;-82
2023/06/23 03:03:27;;;;;;;;;;;;;;;26.57;46.32;100996.98;102987;1296;61340;-82
2023/06/23 03:05:52;;;;;;;;;;;;;;;26.57;46.31;100995.88;103066;1291;62170;-82
2023/06/23 03:08:18;;;;;;;;;;;;;;;26.57;46.29;100991.06;102962;1295;61319;-81
2023/06/23 03:10:43;;;;;;;;;;;;;;;26.57;46.35;100994.44;102955;1291;62197;-81
2023/06/23 03:13:09;;;;;;;;;;;;;;;26.57;46.35;100996.83;103101;1292;61752;-81
2023/06/23 03:15:36;;;;;;;;;;;;;;;26.57;46.28;100998.24;103064;1291;61883;-81
2023/06/23 03:18:07;;;;;;;;;;;;;;;26.57;46.26;101001.30;103002;1291;61350;-81
2023/06/23 03:20:46;;;;;;;;;;;;;;;26.58;46.42;101002.01;103006;1289;64019;-81
2023/06/23 03:23:13;;;;;;;;;;;;;;;26.57;46.34;101005.83;102944;1290;66944;-81
2023/06/23 03:25:40;;;;;;;;;;;;;;;26.57;46.33;101000.21;103009;1295;61882;-81
2023/06/23 03:28:06;;;;;;;;;;;;;;;26.57;46.37;101002.00;102850;1291;61386;-81
2023/06/23 03:30:33;;;;;;;;;;;;;;;26.58;46.51;101004.12;103067;1290;61391;-82
2023/06/23 03:33:01;;;;;;;;;;;;;;;26.58;46.43;100999.98;102988;1291;61374;-82
2023/06/23 03:35:28;;;;;;;;;;;;;;;26.58;46.39;101001.24;102990;1295;61425;-82
2023/06/23 03:37:59;;;;;;;;;;;;;;;26.58;46.55;101000.49;102993;1291;61413;-82
2023/06/23 03:40:26;;;;;;;;;;;;;;;26.58;46.51;100999.93;103004;1289;64986;-82
2023/06/23 03:42:56;;;;;;;;;;;;;;;26.59;46.35;101001.02;102949;1289;66890;-82
2023/06/23 03:45:22;;;;;;;;;;;;;;;26.58;46.54;101002.47;102971;1290;62379;-82
2023/06/23 03:47:47;;;;;;;;;;;;;;;26.59;46.44;101011.85;103051;1291;61424;-82
2023/06/23 03:50:14;;;;;;;;;;;;;;;26.59;46.46;101011.45;102957;1297;61398;-82
2023/06/23 03:52:39;;;;;;;;;;;;;;;26.59;46.58;101012.53;102941;1289;61392;-82
2023/06/23 03:55:05;;;;;;;;;;;;;;;26.59;46.52;101008.94;102985;1295;61453;-82
2023/06/23 03:57:31;;;;;;;;;;;;;;;26.59;46.43;101010.37;103016;1291;61302;-83
2023/06/23 03:59:57;;;;;;;;;;;;;;;26.59;46.54;101010.60;102973;1291;61455;-82
2023/06/23 04:02:23;;;;;;;;;;;;;;;26.58;46.57;101009.16;102999;1296;66198;-82
2023/06/23 04:04:49;;;;;;;;;;;;;;;26.58;46.50;101008.95;102964;1290;61404;-82
2023/06/23 04:07:14;;;;;;;;;;;;;;;26.58;46.67;101008.27;102949;1295;62436;-82
2023/06/23 04:09:40;;;;;;;;;;;;;;;26.59;46.50;101008.77;102979;1295;61319;-81
2023/06/23 04:12:07;;;;;;;;;;;;;;;26.58;46.44;101006.43;102994;1296;61470;-81
2023/06/23 04:14:32;;;;;;;;;;;;;;;26.59;46.68;101005.15;103005;1291;62368;-81
2023/06/23 04:16:58;;;;;;;;;;;;;;;26.58;46.64;101008.79;103007;1296;61314;-81
2023/06/23 04:19:25;;;;;;;;;;;;;;;26.59;46.58;101009.65;102945;1291;61435;-81
2023/06/23 04:21:50;;;;;;;;;;;;;;;26.59;46.62;101009.79;102896;1289;61288;-81
2023/06/23 04:24:15;;;;;;;;;;;;;;;26.60;46.58;101006.48;102917;1296;62334;-81
2023/06/23 04:26:41;;;;;;;;;;;;;;;26.60;46.43;101009.58;102980;1289;61390;-81
2023/06/23 04:29:07;;;;;;;;;;;;;;;26.60;46.59;101003.80;103037;1290;62599;-82
2023/06/23 04:31:33;;;;;;;;;;;;;;;26.60;46.51;101003.96;103005;1293;61331;-82
2023/06/23 04:33:58;;;;;;;;;;;;;;;26.61;46.48;101004.80;103009;1289;62461;-82
2023/06/23 04:36:24;;;;;;;;;;;;;;;26.61;46.45;101010.56;102994;1291;61475;-82
2023/06/23 04:38:56;;;;;;;;;;;;;;;26.62;46.35;101010.86;103073;1290;61485;-82
2023/06/23 04:41:22;;;;;;;;;;;;;;;26.62;46.50;101009.73;103090;1290;61362;-82
2023/06/23 04:43:50;;;;;;;;;;;;;;;26.63;46.33;101010.56;102969;1289;62607;-81
2023/06/23 04:46:22;;;;;;;;;;;;;;;26.64;46.42;101007.42;103026;1291;63837;-82
2023/06/23 04:48:49;;;;;;;;;;;;;;;26.65;46.55;101010.05;103025;1289;65815;-82
2023/06/23 04:51:14;;;;;;;;;;;;;;;26.65;46.41;101011.24;102974;1293;61434;-82
2023/06/23 04:53:45;;;;;;;;;;;;;;;26.66;46.46;101015.50;102919;1291;61477;-81
2023/06/23 04:56:15;;;;;;;;;;;;;;;26.66;46.57;101015.13;102983;1289;63629;-81
2023/06/23 04:58:40;;;;;;;;;;;;;;;26.67;46.57;101011.09;102933;1290;66943;-82
2023/06/23 05:01:07;;;;;;;;;;;;;;;26.69;46.30;101010.59;103110;1293;61383;-82
2023/06/23 05:03:32;;;;;;;;;;;;;;;26.69;46.46;101012.52;103045;1291;61409;-82
2023/06/23 05:05:58;;;;;;;;;;;;;;;26.70;46.60;101016.27;103038;1291;61461;-82
2023/06/23 05:08:25;;;;;;;;;;;;;;;26.70;46.34;101019.81;103175;1293;61423;-82
2023/06/23 05:10:51;;;;;;;;;;;;;;;26.71;46.51;101022.13;103295;1291;61818;-82
2023/06/23 05:13:17;;;;;;;;;;;;;;;26.72;46.67;101024.02;103014;1291;62539;-82
2023/06/23 05:15:43;;;;;;;;;;;;;;;26.72;46.53;101024.16;103440;1293;61402;-82
2023/06/23 05:18:09;;;;;;;;;;;;;;;26.73;46.38;101027.14;103562;1292;61321;-82
2023/06/23 05:20:34;;;;;;;;;;;;;;;26.74;46.49;101024.95;103352;1290;67078;-82
2023/06/23 05:23:02;;;;;;;;;;;;;;;26.74;46.77;101025.45;103305;1291;61469;-81
2023/06/23 05:25:30;;;;;;;;;;;;;;;26.75;46.53;101027.90;102965;1293;61443;-81
2023/06/23 05:27:59;;;;;;;;;;;;;;;26.76;46.34;101032.70;102973;1290;63684;-81
2023/06/23 05:30:25;;;;;;;;;;;;;;;26.76;46.48;101031.56;103272;1291;65855;-81
2023/06/23 05:32:50;;;;;;;;;;;;;;;26.77;46.39;101034.95;102994;1291;61408;-81
2023/06/23 05:35:16;;;;;;;;;;;;;;;26.78;46.58;101030.18;103133;1293;61437;-81
2023/06/23 05:37:42;;;;;;;;;;;;;;;26.78;46.60;101029.59;103000;1291;61433;-82
2023/06/23 05:40:08;;;;;;;;;;;;;;;26.79;46.59;101035.52;103049;1289;62406;-82
2023/06/23 05:42:34;;;;;;;;;;;;;;;26.79;46.50;101035.27;103187;1293;62062;-82
2023/06/23 05:45:00;;;;;;;;;;;;;;;26.80;46.61;101034.49;103084;1291;61334;-82
2023/06/23 05:47:27;;;;;;;;;;;;;;;26.80;46.52;101036.27;103364;1290;61437;-82
2023/06/23 05:49:53;;;;;;;;;;;;;;;26.81;46.61;101037.48;103096;1293;61323;-82
2023/06/23 05:52:19;;;;;;;;;;;;;;;26.82;46.44;101038.11;103186;1290;61442;-82
2023/06/23 05:54:44;;;;;;;;;;;;;;;26.82;46.52;101035.38;103033;1291;61328;-82
2023/06/23 05:57:19;;;;;;;;;;;;;;;26.83;46.57;101036.96;103029;1290;61503;-82
2023/06/23 05:59:44;;;;;;;;;;;;;;;26.83;46.61;101036.34;103276;1289;64966;-82
2023/06/23 06:02:12;;;;;;;;;;;;;;;26.84;46.49;101035.20;103664;1293;61921;-82
2023/06/23 06:04:38;;;;;;;;;;;;;;;26.85;46.55;101035.31;103407;1289;61395;-82
2023/06/23 06:07:03;;;;;;;;;;;;;;;26.85;46.61;101038.88;103593;1289;61384;-82
2023/06/23 06:09:29;;;;;;;;;;;;;;;26.86;46.54;101037.34;103409;1290;61387;-82
2023/06/23 06:11:55;;;;;;;;;;;;;;;26.87;46.60;101032.58;103345;1293;61391;-81
2023/06/23 06:14:20;;;;;;;;;;;;;;;26.87;46.79;101030.19;103107;1290;61535;-81
2023/06/23 06:16:46;;;;;;;;;;;;;;;26.88;46.84;101030.30;103306;1294;61308;-81
2023/06/23 06:19:12;;;;;;;;;;;;;;;26.89;46.70;101031.16;103206;1291;61309;-81
2023/06/23 06:21:37;;;;;;;;;;;;;;;26.89;46.77;101032.52;103133;1293;61311;-81
2023/06/23 06:24:03;;;;;;;;;;;;;;;26.90;46.56;101034.80;103165;1290;62558;-81
2023/06/23 06:26:29;;;;;;;;;;;;;;;26.91;46.57;101033.12;103449;1288;61377;-82
2023/06/23 06:28:54;;;;;;;;;;;;;;;26.91;46.62;101032.42;103406;1296;61487;-82
2023/06/23 06:31:21;;;;;;;;;;;;;;;26.92;46.64;101029.06;103467;1293;62628;-82
2023/06/23 06:33:48;;;;;;;;;;;;;;;26.92;46.55;101033.71;103315;1295;65005;-82
2023/06/23 06:36:14;;;;;;;;;;;;;;;26.93;46.45;101027.34;103317;1290;66885;-82
2023/06/23 06:38:40;;;;;;;;;;;;;;;26.93;46.79;101027.48;103410;1292;62439;-82
2023/06/23 06:41:06;;;;;;;;;;;;;;;26.94;46.52;101027.05;103233;1289;61866;-82
2023/06/23 06:43:32;;;;;;;;;;;;;;;26.94;46.79;101030.44;103168;1295;61389;-82
2023/06/23 06:45:59;;;;;;;;;;;;;;;26.95;46.52;101034.20;103662;1293;61344;-82
2023/06/23 06:48:26;;;;;;;;;;;;;;;26.95;46.71;101029.83;103349;1289;61329;-82
2023/06/23 06:50:51;;;;;;;;;;;;;;;26.96;46.86;101025.09;103574;1289;61414;-82
2023/06/23 06:53:17;;;;;;;;;;;;;;;26.96;46.73;101024.71;103159;1296;61375;-82
2023/06/23 06:55:42;;;;;;;;;;;;;;;26.97;46.68;101023.41;103293;1291;61411;-82
2023/06/23 06:58:08;;;;;;;;;;;;;;;26.97;46.67;101024.96;103034;1291;66715;-82
2023/06/23 07:00:34;;;;;;;;;;;;;;;26.97;47.02;101024.63;103324;1294;61386;-82
2023/06/23 07:03:00;;;;;;;;;;;;;;;26.97;47.03;101021.42;103170;1290;61402;-81
2023/06/23 07:05:25;;;;;;;;;;;;;;;26.97;47.00;101018.47;103062;1290;61394;-83
2023/06/23 07:07:51;;;;;;;;;;;;;;;26.97;46.79;101017.08;102661;1295;703508;-82
2023/06/23 07:10:16;;;;;;;;;;;;;;;26.97;46.79;101016.30;103001;1295;66696;-82
2023/06/23 07:12:42;;;;;;;;;;;;;;;26.97;46.82;101014.51;103267;1290;61353;-81
2023/06/23 07:15:07;;;;;;;;;;;;;;;26.98;46.74;101017.15;103208;1290;61464;-81
2023/06/23 07:17:33;;;;;;;;;;;;;;;26.97;46.77;101016.16;103263;1289;61387;-81
2023/06/23 07:19:59;;;;;;;;;;;;;;;26.97;46.73;101014.67;103188;1290;61399;-81
2023/06/23 07:22:24;;;;;;;;;;;;;;;26.97;46.82;101013.21;103054;1294;66826;-82
2023/06/23 07:24:50;;;;;;;;;;;;;;;26.97;46.81;101013.60;103041;1293;62657;-81
2023/06/23 07:27:16;;;;;;;;;;;;;;;26.97;47.09;101013.80;103036;1291;61290;-81
2023/06/23 07:29:42;;;;;;;;;;;;;;;26.98;46.81;101014.81;103177;1295;61432;-82
2023/06/23 07:32:08;;;;;;;;;;;;;;;26.97;46.73;101013.94;103303;1290;61260;-82
2023/06/23 07:34:34;;;;;;;;;;;;;;;26.97;46.89;101015.55;103445;1289;61378;-82
2023/06/23 07:36:59;;;;;;;;;;;;;;;26.97;46.97;101015.19;103716;1291;61395;-82
2023/06/23 07:39:26;;;;;;;;;;;;;;;26.98;46.92;101012.45;102979;1291;61333;-82
2023/06/23 07:41:51;;;;;;;;;;;;;;;26.98;46.77;101011.54;103017;1290;62295;-82
2023/06/23 07:44:17;;;;;;;;;;;;;;;26.98;46.83;101009.88;103812;1284;61452;-81
2023/06/23 07:46:43;;;;;;;;;;;;;;;26.98;46.64;101007.23;103845;1286;61402;-81
2023/06/23 07:49:08;;;;;;;;;;;;;;;26.98;46.80;101004.48;103650;1284;61281;-81
2023/06/23 07:51:34;;;;;;;;;;;;;;;26.98;46.76;100997.08;103455;1284;61434;-82
2023/06/23 07:53:59;;;;;;;;;;;;;;;26.98;46.73;101001.41;103628;1284;62457;-82
2023/06/23 07:56:25;;;;;;;;;;;;;;;26.98;46.88;100997.42;103487;1287;62565;-82
2023/06/23 07:58:50;;;;;;;;;;;;;;;26.98;46.75;101001.73;103535;1284;61414;-83
2023/06/23 08:01:16;;;;;;;;;;;;;;;26.98;46.96;100999.92;103520;1290;62388;-83
2023/06/23 08:03:47;;;;;;;;;;;;;;;26.99;46.83;100995.20;103596;1287;61390;-83
2023/06/23 08:06:13;;;;;;;;;;;;;;;26.99;46.65;100991.58;103791;1286;66571;-83
2023/06/23 08:08:40;;;;;;;;;;;;;;;26.99;46.84;100990.33;103531;1290;61357;-82
2023/06/23 08:11:06;;;;;;;;;;;;;;;26.98;46.99;100989.45;103391;1286;61350;-82
2023/06/23 08:13:31;;;;;;;;;;;;;;;26.99;46.75;100989.75;103753;1285;61802;-82
2023/06/23 08:15:56;;;;;;;;;;;;;;;26.99;46.87;100987.23;103787;1290;62383;-82
2023/06/23 08:18:22;;;;;;;;;;;;;;;26.99;46.72;100984.52;103607;1285;61476;-83
2023/06/23 08:20:49;;;;;;;;;;;;;;;26.99;46.78;100980.56;103712;1287;61463;-82
2023/06/23 08:23:14;;;;;;;;;;;;;;;26.99;46.64;100980.74;103580;1292;61389;-82
2023/06/23 08:25:40;;;;;;;;;;;;;;;26.99;46.94;100985.23;103886;1284;63147;-82
2023/06/23 08:28:05;;;;;;;;;;;;;;;27.00;46.81;100981.77;103872;1284;61438;-82
2023/06/23 08:30:31;;;;;;;;;;;;;;;27.00;46.68;100979.03;103911;1284;61383;-82
2023/06/23 08:32:57;;;;;;;;;;;;;;;27.01;46.90;100972.97;104896;1284;61347;-82
2023/06/23 08:35:22;;;;;;;;;;;;;;;27.01;46.83;100967.70;103903;1284;61494;-82
2023/06/23 08:37:49;;;;;;;;;;;;;;;27.01;46.74;100967.33;104011;1285;61349;-82
2023/06/23 08:40:14;;;;;;;;;;;;;;;27.01;46.76;100965.30;103869;1284;61383;-81
2023/06/23 08:42:40;;;;;;;;;;;;;;;27.02;46.88;100962.94;104046;1284;61405;-81
2023/06/23 08:45:07;;;;;;;;;;;;;;;27.02;46.71;100967.40;103995;1284;61303;-81
2023/06/23 08:47:33;;;;;;;;;;;;;;;27.03;46.65;100969.13;103826;1284;62424;-81
2023/06/23 08:49:58;;;;;;;;;;;;;;;27.03;46.83;100970.73;103983;1285;62480;-81
2023/06/23 08:52:24;;;;;;;;;;;;;;;27.04;46.71;100966.52;103770;1285;61472;-81
2023/06/23 08:54:50;;;;;;;;;;;;;;;27.04;46.79;100961.45;103583;1285;61385;-82
2023/06/23 08:57:15;;;;;;;;;;;;;;;27.04;46.63;100959.45;103956;1284;61485;-82
2023/06/23 08:59:41;;;;;;;;;;;;;;;27.03;46.84;100957.94;104048;1287;61444;-82
2023/06/23 09:02:06;;;;;;;;;;;;;;;27.03;46.88;100958.32;103956;1287;61377;-82
2023/06/23 09:04:31;;;;;;;;;;;;;;;27.03;46.74;100959.89;104068;1287;61431;-82
2023/06/23 09:06:58;;;;;;;;;;;;;;;27.03;46.89;100962.45;103997;1284;61392;-82
2023/06/23 09:09:24;;;;;;;;;;;;;;;27.04;46.95;100957.69;103884;1284;61376;-82
2023/06/23 09:11:50;;;;;;;;;;;;;;;27.04;46.99;100959.14;103948;1289;61387;-82
2023/06/23 09:14:15;;;;;;;;;;;;;;;27.04;46.89;100959.31;103691;1285;61456;-82
2023/06/23 09:16:41;;;;;;;;;;;;;;;27.04;46.93;100959.80;103721;1284;61549;-82
2023/06/23 09:19:07;;;;;;;;;;;;;;;27.04;46.78;100958.91;103627;1290;61324;-82
2023/06/23 09:21:35;;;;;;;;;;;;;;;27.04;46.63;100960.67;104173;1284;61325;-82
2023/06/23 09:24:04;;;;;;;;;;;;;;;27.05;46.60;100956.83;103915;1284;63865;-82
2023/06/23 09:26:30;;;;;;;;;;;;;;;27.05;46.67;100951.08;103776;1284;65839;-82
2023/06/23 09:29:15;;;;;;;;;;;;;;;27.05;46.44;100949.96;103962;1284;61335;-82
2023/06/23 09:31:41;;;;;;;;;;;;;;;27.06;46.32;100950.81;103721;1284;62498;-82
2023/06/23 09:34:06;;;;;;;;;;;;;;;27.06;46.43;100950.27;103434;1290;61364;-82
2023/06/23 09:36:37;;;;;;;;;;;;;;;27.06;46.33;100949.16;103409;1290;62021;-82
2023/06/23 09:39:06;;;;;;;;;;;;;;;27.06;46.59;100949.70;103461;1286;61410;-82
2023/06/23 09:41:32;;;;;;;;;;;;;;;27.06;46.62;100948.80;103438;1287;61499;-82
2023/06/23 09:43:59;;;;;;;;;;;;;;;27.06;46.40;100946.11;103881;1285;61343;-82
2023/06/23 09:46:25;;;;;;;;;;;;;;;27.06;46.27;100942.88;103992;1287;61485;-82
2023/06/23 09:48:53;;;;;;;;;;;;;;;27.05;46.39;100931.91;103917;1285;61466;-82
2023/06/23 09:51:19;;;;;;;;;;;;;;;27.06;46.38;100931.31;103761;1287;61269;-81
2023/06/23 09:53:44;;;;;;;;;;;;;;;27.06;46.19;100926.06;103935;1287;61390;-81
2023/06/23 09:56:17;;;;;;;;;;;;;;;27.06;46.42;100923.33;103718;1285;61482;-82
2023/06/23 09:58:44;;;;;;;;;;;;;;;27.06;46.29;100919.33;103471;1287;61296;-82
2023/06/23 10:01:10;;;;;;;;;;;;;;;27.06;46.45;100916.45;103541;1288;61387;-82
2023/06/23 10:03:48;;;;;;;;;;;;;;;27.06;46.37;100911.20;103381;1290;61405;-82
2023/06/23 10:06:21;;;;;;;;;;;;;;;27.06;46.30;100912.30;103649;1288;66866;-82
2023/06/23 10:08:46;;;;;;;;;;;;;;;27.06;46.25;100910.35;103594;1284;62223;-82
2023/06/23 10:11:12;;;;;;;;;;;;;;;27.07;46.39;100908.45;103515;1285;61406;-81
2023/06/23 10:13:37;;;;;;;;;;;;;;;27.08;46.32;100906.73;103730;1289;62464;-81
2023/06/23 10:16:03;;;;;;;;;;;;;;;27.08;46.25;100903.77;103942;1287;61426;-81
2023/06/23 10:18:29;;;;;;;;;;;;;;;27.09;46.22;100904.09;104099;1289;61395;-82
2023/06/23 10:20:54;;;;;;;;;;;;;;;27.08;46.17;100900.15;103861;1285;61307;-81
2023/06/23 10:23:20;;;;;;;;;;;;;;;27.09;46.10;100902.09;103960;1284;61291;-82
2023/06/23 10:25:45;;;;;;;;;;;;;;;27.10;46.25;100897.88;103848;1284;61427;-82
2023/06/23 10:28:11;;;;;;;;;;;;;;;27.11;46.15;100897.58;103776;1285;61928;-81
2023/06/23 10:30:37;;;;;;;;;;;;;;;27.12;45.91;100897.17;103949;1286;61494;-82
2023/06/23 10:33:02;;;;;;;;;;;;;;;27.13;45.84;100894.70;103994;1286;61357;-82
2023/06/23 10:35:28;;;;;;;;;;;;;;;27.14;45.76;100892.40;103614;1287;61382;-82
2023/06/23 10:37:55;;;;;;;;;;;;;;;27.16;45.68;100893.34;103646;1287;61459;-82
2023/06/23 10:40:22;;;;;;;;;;;;;;;27.16;45.62;100888.96;103546;1288;62485;-82
2023/06/23 10:42:50;;;;;;;;;;;;;;;27.16;45.57;100889.29;103390;1287;61406;-82
2023/06/23 10:45:17;;;;;;;;;;;;;;;27.18;45.61;100889.17;103608;1284;61255;-82
2023/06/23 10:47:43;;;;;;;;;;;;;;;27.18;45.45;100887.29;103607;1286;65385;-82
2023/06/23 10:50:08;;;;;;;;;;;;;;;27.19;45.60;100885.63;103490;1287;61462;-82
2023/06/23 10:52:35;;;;;;;;;;;;;;;27.18;45.48;100881.15;103852;1287;63423;-82
2023/06/23 10:55:01;;;;;;;;;;;;;;;27.18;45.60;100886.11;103637;1285;61465;-82
2023/06/23 10:57:26;;;;;;;;;;;;;;;27.18;45.44;100881.21;103515;1287;61917;-81
2023/06/23 10:59:58;;;;;;;;;;;;;;;27.17;45.61;100876.90;103103;1288;61762;-81
2023/06/23 11:02:25;;;;;;;;;;;;;;;27.17;45.41;100875.65;103435;1292;61291;-81
2023/06/23 11:04:53;;;;;;;;;;;;;;;27.17;45.43;100872.05;103574;1288;61324;-81
2023/06/23 11:07:18;;;;;;;;;;;;;;;27.17;45.47;100867.03;103558;1288;63786;-81
2023/06/23 11:09:58;;;;;;;;;;;;;;;27.16;45.46;100862.59;103407;1285;61475;-82
2023/06/23 11:12:33;;;;;;;;;;;;;;;27.16;45.60;100859.94;103585;1286;61184;-82
2023/06/23 11:15:27;;;;;;;;;;;;;;;27.14;45.43;100860.77;103420;1286;62451;-82
2023/06/23 11:17:58;;;;;;;;;;;;;;;27.14;45.37;100856.87;102921;1292;64148;-82
2023/06/23 11:20:24;;;;;;;;;;;;;;;27.13;45.36;100853.54;103090;1291;65869;-82
2023/06/23 11:22:56;;;;;;;;;;;;;;;27.13;45.49;100850.82;103517;1291;61491;-82
2023/06/23 11:25:31;;;;;;;;;;;;;;;27.13;45.37;100851.03;103315;1290;62243;-82
2023/06/23 11:28:16;;;;;;;;;;;;;;;27.13;45.36;100845.95;103265;1290;63898;-82
2023/06/23 11:30:55;;;;;;;;;;;;;;;27.13;45.40;100843.45;103117;1293;65065;-82
2023/06/23 11:33:28;;;;;;;;;;;;;;;27.12;45.57;100842.90;103166;1294;61514;-82
2023/06/23 11:35:54;;;;;;;;;;;;;;;27.12;45.34;100840.19;102939;1291;61383;-82
2023/06/23 11:38:19;;;;;;;;;;;;;;;27.13;45.47;100838.02;102936;1290;61386;-82
2023/06/23 11:40:45;;;;;;;;;;;;;;;27.13;45.58;100837.31;102876;1296;61578;-82
2023/06/23 11:43:11;;;;;;;;;;;;;;;27.12;45.35;100838.61;102967;1291;61591;-81
2023/06/23 11:45:36;;;;;;;;;;;;;;;27.12;45.41;100841.15;103253;1295;61394;-81
2023/06/23 11:48:01;;;;;;;;;;;;;;;27.12;45.58;100842.08;103100;1293;61249;-81
2023/06/23 11:50:27;;;;;;;;;;;;;;;27.11;45.63;100838.34;103139;1290;61479;-81
2023/06/23 11:52:52;;;;;;;;;;;;;;;27.11;45.66;100832.17;103140;1290;61402;-81
2023/06/23 11:55:18;;;;;;;;;;;;;;;27.12;45.45;100831.58;103535;1289;62579;-82
2023/06/23 11:57:46;;;;;;;;;;;;;;;27.11;45.58;100829.25;103778;1285;62588;-82
2023/06/23 12:00:12;;;;;;;;;;;;;;;27.12;45.35;100832.32;103655;1285;61290;-82
2023/06/23 12:02:37;;;;;;;;;;;;;;;27.12;45.33;100830.35;103494;1285;62498;-82
2023/06/23 12:05:03;;;;;;;;;;;;;;;27.11;45.35;100824.21;103518;1290;61379;-82
2023/06/23 12:07:31;;;;;;;;;;;;;;;27.11;45.33;100826.04;103553;1284;61451;-82
2023/06/23 12:09:57;;;;;;;;;;;;;;;27.11;45.45;100827.50;103624;1284;61347;-82
2023/06/23 12:12:22;;;;;;;;;;;;;;;27.10;45.33;100825.77;103515;1285;61401;-82
2023/06/23 12:14:48;;;;;;;;;;;;;;;27.10;45.61;100823.99;103449;1284;61373;-82
2023/06/23 12:17:15;;;;;;;;;;;;;;;27.10;45.59;100820.34;103512;1289;61470;-82
2023/06/23 12:19:43;;;;;;;;;;;;;;;27.09;45.63;100816.95;103379;1284;61386;-82
2023/06/23 12:22:13;;;;;;;;;;;;;;;27.09;45.54;100815.15;103601;1284;61277;-82
2023/06/23 12:24:38;;;;;;;;;;;;;;;27.09;45.55;100811.73;103505;1288;63787;-82